Terminal Aerodrome Forecast
Issued by NWS Wilmington, OH

Current Version | Previous Version | Graphics & Text | Print | Product List | Glossary On
Versions: 1 2 3 4 5 6 7 8 9 10 11 12 13 14 15 16
000
FTUS41 KILN 301800 AAA
TAFCMH
TAF AMD
KCMH 301829Z 3018/0118 35012KT P6SM VCSH BKN035
     FM010000 36010KT P6SM BKN035
     FM010300 34010KT P6SM OVC015
     FM011100 01010KT P6SM SCT025
     FM011500 35011G19KT P6SM BKN035=

USA.gov is the U.S. government's official web portal to all federal, state and local government web resources and services.